createdAt,value
2019-03-09T00:01:31.076Z,7.20
2019-03-09T00:04:00.356Z,7.20
2019-03-09T00:06:29.778Z,7.30
2019-03-09T00:08:58.883Z,7.40
2019-03-09T00:11:28.115Z,7.40
2019-03-09T00:13:57.351Z,7.50
2019-03-09T00:16:26.598Z,7.50
2019-03-09T00:18:55.858Z,7.50
2019-03-09T00:21:25.049Z,7.50
2019-03-09T00:24:12.313Z,7.60
2019-03-09T00:27:03.587Z,7.70
2019-03-09T00:29:43.836Z,7.70
2019-03-09T00:32:17.163Z,7.80
2019-03-09T00:34:50.919Z,7.80
2019-03-09T00:37:20.607Z,7.90
2019-03-09T00:39:50.104Z,7.90
2019-03-09T00:42:20.623Z,7.90
2019-03-09T00:44:50.693Z,7.90
2019-03-09T00:47:20.679Z,8.00
2019-03-09T00:49:49.899Z,7.90
2019-03-09T00:52:20.675Z,8.00
2019-03-09T00:54:50.883Z,7.90
2019-03-09T00:57:20.347Z,8.00
2019-03-09T00:59:55.572Z,8.00
2019-03-09T01:02:25.372Z,8.10
2019-03-09T01:04:54.804Z,8.20
2019-03-09T01:07:24.364Z,8.20
2019-03-09T01:09:53.642Z,8.20
2019-03-09T01:12:22.847Z,8.20
2019-03-09T01:14:52.056Z,8.20
2019-03-09T01:17:21.407Z,8.40
2019-03-09T01:19:50.636Z,8.60
2019-03-09T01:22:19.743Z,8.70
2019-03-09T01:24:48.995Z,8.70
2019-03-09T01:27:18.170Z,8.70
2019-03-09T01:29:47.332Z,8.80
2019-03-09T01:32:16.836Z,8.80
2019-03-09T01:34:46.007Z,8.90
2019-03-09T01:37:15.465Z,8.90
2019-03-09T01:39:44.978Z,9.00
2019-03-09T01:42:14.187Z,8.90
2019-03-09T01:44:43.906Z,8.90
2019-03-09T01:47:13.091Z,9.00
2019-03-09T01:49:43.175Z,8.90
2019-03-09T01:52:12.335Z,9.00
2019-03-09T01:54:41.582Z,9.00
2019-03-09T01:57:10.757Z,9.00
2019-03-09T01:59:39.957Z,9.00
2019-03-09T02:02:09.199Z,9.10
2019-03-09T02:04:38.907Z,9.10
2019-03-09T02:07:08.492Z,9.10
2019-03-09T02:09:37.702Z,9.10
2019-03-09T02:12:06.839Z,9.10
2019-03-09T02:14:36.459Z,9.10
2019-03-09T02:17:05.802Z,9.10
2019-03-09T02:19:35.060Z,9.20
2019-03-09T02:22:04.283Z,9.20
2019-03-09T02:24:33.430Z,9.10
2019-03-09T02:27:02.676Z,9.10
2019-03-09T02:29:31.834Z,9.10
2019-03-09T02:32:01.267Z,9.10
2019-03-09T02:34:30.596Z,9.20
2019-03-09T02:36:59.768Z,9.20
2019-03-09T02:39:47.957Z,9.10
2019-03-09T02:42:17.261Z,9.10
2019-03-09T02:44:46.366Z,9.10
2019-03-09T02:47:16.296Z,9.10
2019-03-09T02:49:45.833Z,9.10
2019-03-09T02:52:15.559Z,9.00
2019-03-09T02:54:45.079Z,9.00
2019-03-09T02:57:14.360Z,8.80
2019-03-09T02:59:43.833Z,8.70
2019-03-09T03:02:21.089Z,8.60
2019-03-09T03:04:50.673Z,8.50
2019-03-09T03:07:19.851Z,8.40
2019-03-09T03:09:49.464Z,8.30
2019-03-09T03:14:47.939Z,8.30
2019-03-09T03:17:17.117Z,8.30
2019-03-09T03:19:46.258Z,8.30
2019-03-09T03:22:15.473Z,8.30
2019-03-09T03:24:44.997Z,8.30
2019-03-09T03:27:14.196Z,8.30
2019-03-09T03:29:43.431Z,8.10
2019-03-09T03:32:14.660Z,7.90
2019-03-09T03:34:43.979Z,7.80
2019-03-09T03:37:13.123Z,7.60
2019-03-09T03:39:42.269Z,7.50
2019-03-09T03:42:11.410Z,7.50
2019-03-09T03:44:46.192Z,7.50
2019-03-09T03:47:16.571Z,7.40
2019-03-09T03:49:46.123Z,7.50
2019-03-09T03:52:15.302Z,7.50
2019-03-09T03:54:44.463Z,7.40
2019-03-09T03:57:13.716Z,7.40
2019-03-09T03:59:43.034Z,7.40
2019-03-09T04:02:12.183Z,7.40
2019-03-09T04:04:41.377Z,7.30
2019-03-09T04:07:10.949Z,7.30
2019-03-09T04:09:40.322Z,7.30
2019-03-09T04:12:09.488Z,7.30
2019-03-09T04:14:38.691Z,7.20
2019-03-09T04:17:08.069Z,7.20
2019-03-09T04:19:37.607Z,7.20
2019-03-09T04:22:06.739Z,7.20
2019-03-09T04:24:38.709Z,7.20
2019-03-09T04:27:07.892Z,7.20
2019-03-09T04:29:37.092Z,7.40
2019-03-09T04:32:06.280Z,7.50
2019-03-09T04:34:37.742Z,7.50
2019-03-09T04:37:07.027Z,7.60
2019-03-09T04:39:36.784Z,7.60
2019-03-09T04:42:06.103Z,7.60
2019-03-09T04:44:35.295Z,7.60
2019-03-09T04:47:04.559Z,7.60
2019-03-09T04:49:34.893Z,7.50
2019-03-09T04:52:04.205Z,7.40
2019-03-09T04:54:33.692Z,7.30
2019-03-09T04:57:02.854Z,7.30
2019-03-09T04:59:32.013Z,7.10
2019-03-09T05:02:01.177Z,7.10
2019-03-09T05:04:50.743Z,7.10
2019-03-09T05:07:52.248Z,7.10
2019-03-09T05:10:28.123Z,7.00
2019-03-09T05:13:00.767Z,7.10
2019-03-09T05:15:30.258Z,7.10
2019-03-09T05:17:59.450Z,7.10
2019-03-09T05:20:29.003Z,7.10
2019-03-09T05:22:58.155Z,7.20
2019-03-09T05:25:27.530Z,7.20
2019-03-09T05:27:57.007Z,7.20
2019-03-09T05:30:41.243Z,7.20
2019-03-09T05:33:10.824Z,7.30
2019-03-09T05:35:39.985Z,7.30
2019-03-09T05:38:09.234Z,7.30
2019-03-09T05:40:38.377Z,7.30
2019-03-09T05:43:07.509Z,7.30
2019-03-09T05:45:37.110Z,7.40
2019-03-09T05:48:06.336Z,7.40
2019-03-09T05:50:35.836Z,7.40
2019-03-09T05:53:24.145Z,7.50
2019-03-09T05:55:53.655Z,7.50
2019-03-09T05:58:22.863Z,7.50
2019-03-09T06:00:52.979Z,7.60
2019-03-09T06:03:22.284Z,7.60
2019-03-09T06:05:57.740Z,7.60
2019-03-09T06:08:27.359Z,7.60
2019-03-09T06:10:56.564Z,7.60
2019-03-09T06:13:25.791Z,7.60
2019-03-09T06:15:55.379Z,7.60
2019-03-09T06:18:24.580Z,7.60
2019-03-09T06:20:54.146Z,7.50
2019-03-09T06:23:23.303Z,7.50
2019-03-09T06:25:53.471Z,7.50
2019-03-09T06:28:22.945Z,7.60
2019-03-09T06:30:52.769Z,7.60
2019-03-09T06:33:32.791Z,7.60
2019-03-09T06:36:41.896Z,7.60
2019-03-09T06:39:19.787Z,7.70
2019-03-09T06:42:52.466Z,7.70
2019-03-09T06:45:21.735Z,7.70
2019-03-09T06:47:50.941Z,7.80
2019-03-09T06:50:21.605Z,7.80
2019-03-09T06:52:51.064Z,7.90
2019-03-09T06:55:20.586Z,7.90
2019-03-09T06:57:51.998Z,8.00
2019-03-09T07:00:37.804Z,8.10
2019-03-09T07:03:09.085Z,8.10
2019-03-09T07:05:38.274Z,8.10
2019-03-09T07:08:09.108Z,8.20
2019-03-09T07:10:40.152Z,8.20
2019-03-09T07:13:10.097Z,8.30
2019-03-09T07:15:41.470Z,8.40
2019-03-09T07:18:29.809Z,8.50
2019-03-09T07:20:58.946Z,8.60
2019-03-09T07:23:28.250Z,8.70
2019-03-09T07:25:57.540Z,8.70
2019-03-09T07:28:27.007Z,8.80
2019-03-09T07:30:57.116Z,8.80
2019-03-09T07:33:26.257Z,8.90
2019-03-09T07:35:55.454Z,8.90
2019-03-09T07:38:24.594Z,9.00
2019-03-09T07:40:54.157Z,9.10
2019-03-09T07:43:23.422Z,9.10
2019-03-09T07:45:52.581Z,9.00
2019-03-09T07:48:21.802Z,8.90
2019-03-09T07:50:51.052Z,8.90
2019-03-09T07:53:20.443Z,8.90
2019-03-09T07:55:49.930Z,8.90
2019-03-09T07:58:19.064Z,9.00
2019-03-09T08:00:48.296Z,9.10
2019-03-09T08:03:17.481Z,9.10
2019-03-09T08:05:46.803Z,9.20
2019-03-09T08:08:16.001Z,9.20
2019-03-09T08:10:45.541Z,9.30
2019-03-09T08:13:14.792Z,9.30
2019-03-09T08:15:44.100Z,9.40
2019-03-09T08:18:13.392Z,9.50
2019-03-09T08:20:42.613Z,9.60
2019-03-09T08:23:11.827Z,9.80
2019-03-09T08:25:41.434Z,9.90
2019-03-09T08:28:11.336Z,10.00
2019-03-09T08:30:40.451Z,10.20
2019-03-09T08:33:10.031Z,10.40
2019-03-09T08:35:39.257Z,10.30
2019-03-09T08:38:10.385Z,10.30
2019-03-09T08:40:39.546Z,10.20
2019-03-09T08:43:09.094Z,10.10
2019-03-09T08:45:38.663Z,10.10
2019-03-09T08:48:08.143Z,10.10
2019-03-09T08:50:37.319Z,10.00
2019-03-09T08:53:06.498Z,10.00
2019-03-09T08:55:36.128Z,10.00
2019-03-09T08:58:05.976Z,10.10
2019-03-09T09:00:35.382Z,10.10
2019-03-09T09:03:04.674Z,10.20
2019-03-09T09:05:33.918Z,10.20
2019-03-09T09:08:04.060Z,10.20
2019-03-09T09:10:33.592Z,10.30
2019-03-09T09:13:02.713Z,10.30
2019-03-09T09:15:31.918Z,10.40
2019-03-09T09:18:01.387Z,10.50
2019-03-09T09:20:31.181Z,10.50
2019-03-09T09:23:00.326Z,10.40
2019-03-09T09:25:29.907Z,10.20
2019-03-09T09:27:59.738Z,10.20
2019-03-09T09:30:29.363Z,10.10
2019-03-09T09:32:58.636Z,10.10
2019-03-09T09:35:27.997Z,10.10
2019-03-09T09:37:57.618Z,10.20
2019-03-09T09:40:27.244Z,10.20
2019-03-09T09:42:56.524Z,10.20
2019-03-09T09:45:26.026Z,10.40
2019-03-09T09:47:55.337Z,10.60
2019-03-09T09:50:24.571Z,10.80
2019-03-09T09:52:53.775Z,11.00
2019-03-09T09:55:23.108Z,11.20
2019-03-09T09:57:52.442Z,11.40
2019-03-09T10:00:23.853Z,11.70
2019-03-09T10:02:53.147Z,11.90
2019-03-09T10:05:22.622Z,12.00
2019-03-09T10:07:51.924Z,12.10
2019-03-09T10:10:21.411Z,12.00
2019-03-09T10:12:50.644Z,12.10
2019-03-09T10:15:24.948Z,12.00
2019-03-09T10:17:54.174Z,11.90
2019-03-09T10:20:23.832Z,11.90
2019-03-09T10:23:03.059Z,11.80
2019-03-09T10:25:24.407Z,11.90
2019-03-09T10:27:54.710Z,12.00
2019-03-09T10:30:24.289Z,12.10
2019-03-09T10:32:53.966Z,12.10
2019-03-09T10:35:23.245Z,12.20
2019-03-09T10:37:52.518Z,12.30
2019-03-09T10:40:21.757Z,12.40
2019-03-09T10:42:51.186Z,12.40
2019-03-09T10:45:20.989Z,12.50
2019-03-09T10:47:51.563Z,12.50
2019-03-09T10:50:20.816Z,12.40
2019-03-09T10:52:50.286Z,12.30
2019-03-09T10:55:20.674Z,12.30
2019-03-09T10:57:49.908Z,12.40
2019-03-09T11:00:24.668Z,12.50
2019-03-09T11:03:00.800Z,12.50
2019-03-09T11:05:30.595Z,12.40
2019-03-09T11:08:00.679Z,12.50
2019-03-09T11:10:30.207Z,12.50
2019-03-09T11:12:59.430Z,12.40
2019-03-09T11:15:28.759Z,12.50
2019-03-09T11:17:58.255Z,12.60
2019-03-09T11:20:27.604Z,12.80
2019-03-09T11:22:56.827Z,12.80
2019-03-09T11:25:26.162Z,12.90
2019-03-09T11:27:57.291Z,13.00
2019-03-09T11:30:27.060Z,13.00
2019-03-09T11:32:56.324Z,13.10
2019-03-09T11:35:27.097Z,13.10
2019-03-09T11:37:58.376Z,13.10
2019-03-09T11:40:29.896Z,13.00
2019-03-09T11:42:59.134Z,13.00
2019-03-09T11:45:29.474Z,13.00
2019-03-09T11:47:58.733Z,13.00
2019-03-09T11:50:28.315Z,13.10
2019-03-09T11:52:57.517Z,13.10
2019-03-09T11:55:27.073Z,12.90
2019-03-09T11:57:56.304Z,12.80
2019-03-09T12:00:27.940Z,12.80
2019-03-09T12:02:57.476Z,12.70
2019-03-09T12:05:27.142Z,12.50
2019-03-09T12:07:57.083Z,12.50
2019-03-09T12:10:26.332Z,12.50
2019-03-09T12:12:56.241Z,12.50
2019-03-09T12:15:25.535Z,12.40
2019-03-09T12:17:55.086Z,12.40
2019-03-09T12:20:26.511Z,12.50
2019-03-09T12:23:01.088Z,12.50
2019-03-09T12:25:27.515Z,12.50
2019-03-09T12:27:56.778Z,12.50
2019-03-09T12:30:26.024Z,12.50
2019-03-09T12:32:55.309Z,12.50
2019-03-09T12:35:24.693Z,12.40
2019-03-09T12:37:54.979Z,12.40
2019-03-09T12:40:24.708Z,12.30
2019-03-09T12:42:53.854Z,12.20
2019-03-09T12:45:23.023Z,12.20
2019-03-09T12:47:52.377Z,12.30
2019-03-09T12:50:22.012Z,12.50
2019-03-09T12:52:52.223Z,12.70
2019-03-09T12:55:22.413Z,12.70
2019-03-09T12:57:51.939Z,12.60
2019-03-09T13:00:21.198Z,12.60
2019-03-09T13:02:50.408Z,12.70
2019-03-09T13:05:20.455Z,13.20
2019-03-09T13:07:50.054Z,15.70
2019-03-09T13:10:19.323Z,18.00
2019-03-09T13:12:49.053Z,19.60
2019-03-09T13:15:18.386Z,20.40
2019-03-09T13:17:47.738Z,18.50
2019-03-09T13:20:16.982Z,18.50
2019-03-09T13:22:46.315Z,19.90
2019-03-09T13:25:15.976Z,21.00
2019-03-09T13:27:46.735Z,21.20
2019-03-09T13:30:18.446Z,19.80
2019-03-09T13:32:47.621Z,19.90
2019-03-09T13:35:17.755Z,19.10
2019-03-09T13:37:47.097Z,17.10
2019-03-09T13:40:17.134Z,16.90
2019-03-09T13:42:47.507Z,16.80
2019-03-09T13:45:18.249Z,16.90
2019-03-09T13:47:48.789Z,16.60
2019-03-09T13:50:18.324Z,16.10
2019-03-09T13:52:47.885Z,16.00
2019-03-09T13:55:17.106Z,16.30
2019-03-09T13:57:46.723Z,16.10
2019-03-09T14:00:16.082Z,16.20
2019-03-09T14:02:45.334Z,17.00
2019-03-09T14:05:15.558Z,17.80
2019-03-09T14:07:45.225Z,17.40
2019-03-09T14:10:14.722Z,17.00
2019-03-09T14:12:44.673Z,17.80
2019-03-09T14:15:14.623Z,17.80
2019-03-09T14:17:45.849Z,16.80
2019-03-09T14:22:44.657Z,16.90
2019-03-09T14:25:15.321Z,16.60
2019-03-09T14:27:47.025Z,16.00
2019-03-09T14:30:16.558Z,16.20
2019-03-09T14:32:46.407Z,16.10
2019-03-09T14:35:15.663Z,16.30
2019-03-09T14:37:45.250Z,16.90
2019-03-09T14:40:14.590Z,15.60
2019-03-09T14:42:44.720Z,14.90
2019-03-09T14:45:15.495Z,14.40
2019-03-09T14:47:45.241Z,14.30
2019-03-09T14:50:14.927Z,14.00
2019-03-09T14:52:44.224Z,13.30
2019-03-09T14:55:13.566Z,13.20
2019-03-09T14:57:43.329Z,13.30
2019-03-09T15:00:15.859Z,13.50
2019-03-09T15:02:48.509Z,14.20
2019-03-09T15:05:18.471Z,14.50
2019-03-09T15:07:48.584Z,14.10
2019-03-09T15:10:18.125Z,13.70
2019-03-09T15:12:48.572Z,13.30
2019-03-09T15:15:18.315Z,13.10
2019-03-09T15:17:53.734Z,13.30
2019-03-09T15:20:23.704Z,13.20
2019-03-09T15:22:53.388Z,12.70
2019-03-09T15:25:28.247Z,12.50
2019-03-09T15:27:58.493Z,12.30
2019-03-09T15:30:27.969Z,12.40
2019-03-09T15:32:57.714Z,12.60
2019-03-09T15:35:28.311Z,12.70
2019-03-09T15:37:57.735Z,12.90
2019-03-09T15:40:27.472Z,13.60
2019-03-09T15:42:57.290Z,13.90
2019-03-09T15:45:26.938Z,13.70
2019-03-09T15:47:59.531Z,13.30
2019-03-09T15:50:29.070Z,12.80
2019-03-09T15:52:58.851Z,13.00
2019-03-09T15:55:31.354Z,13.20
2019-03-09T15:58:01.034Z,13.10
2019-03-09T16:00:30.922Z,12.70
2019-03-09T16:03:03.390Z,12.50
2019-03-09T16:05:36.640Z,12.40
2019-03-09T16:08:07.181Z,12.40
2019-03-09T16:10:36.870Z,12.30
2019-03-09T16:13:07.776Z,12.30
2019-03-09T16:15:40.313Z,12.30
2019-03-09T16:18:14.192Z,12.30
2019-03-09T16:20:45.104Z,12.50
2019-03-09T16:23:14.440Z,12.60
2019-03-09T16:25:44.911Z,12.80
2019-03-09T16:28:15.472Z,12.90
2019-03-09T16:33:19.099Z,13.50
2019-03-09T16:35:50.965Z,13.30
2019-03-09T16:38:30.611Z,13.10
2019-03-09T16:40:54.818Z,12.90
2019-03-09T16:43:24.875Z,12.70
2019-03-09T16:45:58.222Z,12.50
2019-03-09T16:48:29.308Z,12.50
2019-03-09T16:50:59.275Z,12.50
2019-03-09T16:53:31.154Z,12.60
2019-03-09T16:56:01.153Z,12.60
2019-03-09T16:58:30.727Z,12.50
2019-03-09T17:01:00.754Z,12.50
2019-03-09T17:03:34.044Z,12.50
2019-03-09T17:06:04.047Z,12.50
2019-03-09T17:08:36.172Z,12.50
2019-03-09T17:11:08.829Z,12.40
2019-03-09T17:13:39.114Z,12.40
2019-03-09T17:16:14.432Z,12.40
2019-03-09T17:18:47.011Z,12.40
2019-03-09T17:21:16.635Z,12.30
2019-03-09T17:23:49.391Z,12.20
2019-03-09T17:26:19.128Z,12.10
2019-03-09T17:28:48.693Z,12.10
2019-03-09T17:31:18.350Z,12.00
2019-03-09T17:33:48.687Z,12.00
2019-03-09T17:36:18.578Z,12.00
2019-03-09T17:38:49.112Z,12.00
2019-03-09T17:41:19.010Z,12.00
2019-03-09T17:43:48.683Z,12.00
2019-03-09T17:46:18.987Z,12.00
2019-03-09T17:48:49.631Z,12.00
2019-03-09T17:51:20.111Z,12.10
2019-03-09T17:53:51.713Z,12.00
2019-03-09T17:56:21.385Z,12.10
2019-03-09T17:58:53.217Z,12.00
2019-03-09T18:01:23.009Z,11.80
2019-03-09T18:03:52.489Z,11.80
2019-03-09T18:06:24.007Z,11.80
2019-03-09T18:08:53.750Z,11.90
2019-03-09T18:11:23.280Z,12.00
2019-03-09T18:13:52.735Z,12.00
2019-03-09T18:16:22.285Z,12.00
2019-03-09T18:18:52.027Z,12.00
2019-03-09T18:21:21.591Z,12.10
2019-03-09T18:23:50.970Z,12.10
2019-03-09T18:26:21.791Z,12.00
2019-03-09T18:28:51.512Z,11.50
2019-03-09T18:31:21.076Z,11.00
2019-03-09T18:33:51.017Z,10.50
2019-03-09T18:36:20.796Z,10.20
2019-03-09T18:38:52.583Z,10.00
2019-03-09T18:41:22.822Z,9.80
2019-03-09T18:43:53.095Z,9.70
2019-03-09T18:46:22.789Z,9.70
2019-03-09T18:48:52.686Z,9.60
2019-03-09T18:51:24.221Z,9.50
2019-03-09T18:53:53.943Z,9.30
2019-03-09T18:56:23.682Z,9.20
2019-03-09T18:58:53.472Z,9.10
2019-03-09T19:01:22.930Z,9.10
2019-03-09T19:03:52.759Z,9.10
2019-03-09T19:06:25.622Z,9.10
2019-03-09T19:08:55.159Z,9.20
2019-03-09T19:11:27.563Z,9.20
2019-03-09T19:13:59.079Z,9.30
2019-03-09T19:16:29.050Z,9.40
2019-03-09T19:18:58.857Z,9.50
2019-03-09T19:21:28.334Z,9.50
2019-03-09T19:23:57.873Z,9.60
2019-03-09T19:26:27.325Z,9.60
2019-03-09T19:28:59.111Z,9.50
2019-03-09T19:31:29.015Z,9.20
2019-03-09T19:34:00.341Z,8.90
2019-03-09T19:36:31.706Z,8.70
2019-03-09T19:39:01.560Z,8.60
2019-03-09T19:41:46.441Z,8.60
2019-03-09T19:44:16.283Z,8.60
2019-03-09T19:46:45.464Z,8.70
2019-03-09T19:49:15.755Z,8.70
2019-03-09T19:51:47.666Z,8.70
2019-03-09T19:54:17.647Z,8.70
2019-03-09T19:56:52.139Z,8.70
2019-03-09T19:59:26.192Z,8.60
2019-03-09T20:01:56.023Z,8.50
2019-03-09T20:04:28.962Z,8.40
2019-03-09T20:06:58.585Z,8.50
2019-03-09T20:09:28.253Z,8.50
2019-03-09T20:11:58.372Z,8.50
2019-03-09T20:14:29.590Z,8.60
2019-03-09T20:16:59.466Z,8.70
2019-03-09T20:19:35.970Z,8.70
2019-03-09T20:22:06.090Z,8.70
2019-03-09T20:24:36.154Z,8.70
2019-03-09T20:27:08.984Z,8.70
2019-03-09T20:29:39.214Z,8.70
2019-03-09T20:32:10.734Z,8.80
2019-03-09T20:34:44.776Z,8.80
2019-03-09T20:37:16.487Z,8.80
2019-03-09T20:39:45.291Z,8.70
2019-03-09T20:42:14.920Z,8.70
2019-03-09T20:44:45.178Z,8.70
2019-03-09T20:47:14.888Z,8.70
2019-03-09T20:49:47.348Z,8.70
2019-03-09T20:52:16.773Z,8.70
2019-03-09T20:54:45.933Z,8.60
2019-03-09T20:57:15.503Z,8.70
2019-03-09T20:59:46.081Z,8.70
2019-03-09T21:02:15.864Z,8.70
2019-03-09T21:04:45.174Z,8.70
2019-03-09T21:07:14.884Z,8.70
2019-03-09T21:09:44.311Z,8.70
2019-03-09T21:12:13.627Z,8.70
2019-03-09T21:14:44.313Z,8.70
2019-03-09T21:17:16.000Z,8.60
2019-03-09T21:19:45.415Z,8.60
2019-03-09T21:22:14.785Z,8.60
2019-03-09T21:24:44.169Z,8.60
2019-03-09T21:27:13.455Z,8.60
2019-03-09T21:29:42.697Z,8.60
2019-03-09T21:32:12.087Z,8.50
2019-03-09T21:34:41.299Z,8.50
2019-03-09T21:37:10.826Z,8.50
2019-03-09T21:39:41.790Z,8.50
2019-03-09T21:42:11.238Z,8.50
2019-03-09T21:44:41.049Z,8.40
2019-03-09T21:47:11.645Z,8.40
2019-03-09T21:49:41.350Z,8.40
2019-03-09T21:52:11.378Z,8.40
2019-03-09T21:54:43.109Z,8.50
2019-03-09T21:57:19.914Z,8.50
2019-03-09T21:59:49.923Z,8.50
2019-03-09T22:02:19.565Z,8.50
2019-03-09T22:04:48.897Z,8.60
2019-03-09T22:07:18.413Z,8.60
2019-03-09T22:10:10.890Z,8.60
2019-03-09T22:12:40.446Z,8.60
2019-03-09T22:15:10.159Z,8.60
2019-03-09T22:17:39.769Z,8.60
2019-03-09T22:20:09.379Z,8.70
2019-03-09T22:22:38.861Z,8.70
2019-03-09T22:25:09.795Z,8.80
2019-03-09T22:27:39.626Z,8.80
2019-03-09T22:30:10.506Z,8.90
2019-03-09T22:32:39.802Z,8.90
2019-03-09T22:35:12.642Z,8.90
2019-03-09T22:37:41.902Z,8.90
2019-03-09T22:40:11.499Z,8.80
2019-03-09T22:42:41.036Z,8.80
2019-03-09T22:45:11.308Z,8.80
2019-03-09T22:47:40.715Z,8.80
2019-03-09T22:50:12.285Z,8.70
2019-03-09T22:52:41.588Z,8.60
2019-03-09T22:55:11.704Z,8.50
2019-03-09T22:57:41.220Z,8.50
2019-03-09T23:00:13.148Z,8.50
2019-03-09T23:02:44.692Z,8.40
2019-03-09T23:05:13.973Z,8.40
2019-03-09T23:07:44.002Z,8.30
2019-03-09T23:10:15.207Z,8.20
2019-03-09T23:12:44.715Z,8.20
2019-03-09T23:15:14.971Z,8.10
2019-03-09T23:17:45.422Z,8.00
2019-03-09T23:20:15.160Z,7.90
2019-03-09T23:22:44.392Z,7.90
2019-03-09T23:25:14.398Z,7.90
2019-03-09T23:27:44.274Z,8.00
2019-03-09T23:30:15.757Z,8.00
2019-03-09T23:32:45.174Z,7.90
2019-03-09T23:35:14.958Z,7.90
2019-03-09T23:37:44.734Z,7.90
2019-03-09T23:40:15.879Z,8.00
2019-03-09T23:42:45.563Z,8.40
2019-03-09T23:45:15.144Z,8.70
2019-03-09T23:47:44.531Z,9.00
2019-03-09T23:50:14.828Z,9.20
2019-03-09T23:52:44.471Z,9.40
2019-03-09T23:55:22.161Z,9.40
2019-03-09T23:57:45.804Z,9.50
